createdAt,value
2023-02-19T00:07:59.979Z,-11.26
2023-02-19T00:18:02.836Z,-11.35
2023-02-19T00:28:07.097Z,-11.44
2023-02-19T00:38:10.947Z,-11.52
2023-02-19T00:48:16.015Z,-11.58
2023-02-19T00:58:18.760Z,-11.65
2023-02-19T01:08:23.397Z,-11.72
2023-02-19T01:18:26.191Z,-11.77
2023-02-19T01:28:30.384Z,-11.82
2023-02-19T01:38:33.463Z,-11.87
2023-02-19T01:48:40.074Z,-11.94
2023-02-19T01:58:43.252Z,-12.02
2023-02-19T02:09:07.153Z,-12.10
2023-02-19T02:19:30.320Z,-12.18
2023-02-19T02:30:15.049Z,-12.32
2023-02-19T02:40:19.873Z,-12.41
2023-02-19T02:50:27.941Z,-12.51
2023-02-19T03:00:53.185Z,-12.62
2023-02-19T03:11:24.787Z,-12.71
2023-02-19T03:21:29.351Z,-12.84
2023-02-19T03:31:34.394Z,-12.93
2023-02-19T03:41:48.475Z,-13.01
2023-02-19T03:52:02.269Z,-13.08
2023-02-19T04:02:11.299Z,-13.14
2023-02-19T04:12:17.759Z,-13.21
2023-02-19T04:22:24.955Z,-13.26
2023-02-19T04:32:29.294Z,-13.30
2023-02-19T04:42:32.142Z,-13.34
2023-02-19T04:52:36.407Z,-13.38
2023-02-19T05:02:39.406Z,-13.41
2023-02-19T05:12:43.525Z,-13.43
2023-02-19T05:22:46.388Z,-13.44
2023-02-19T05:32:50.857Z,-13.41
2023-02-19T05:42:54.296Z,-13.33
2023-02-19T05:53:01.156Z,-13.30
2023-02-19T06:03:04.914Z,-13.23
2023-02-19T06:13:09.971Z,-13.14
2023-02-19T06:23:12.970Z,-13.04
2023-02-19T06:33:17.351Z,-12.95
2023-02-19T06:43:20.256Z,-12.89
2023-02-19T06:53:24.962Z,-12.78
2023-02-19T07:03:28.369Z,-12.64
2023-02-19T07:13:33.402Z,-12.49
2023-02-19T07:23:36.855Z,-12.30
2023-02-19T07:33:43.184Z,-12.09
2023-02-19T07:43:46.121Z,-11.88
2023-02-19T07:53:51.207Z,-11.64
2023-02-19T08:03:56.601Z,-11.41
2023-02-19T08:14:03.167Z,-11.16
2023-02-19T08:24:09.421Z,-10.91
2023-02-19T08:34:17.362Z,-10.69
2023-02-19T08:44:26.222Z,-10.50
2023-02-19T08:54:30.889Z,-10.34
2023-02-19T09:04:34.675Z,-10.16
2023-02-19T09:15:57.227Z,-10.02
2023-02-19T09:26:18.184Z,-9.85
2023-02-19T09:36:32.591Z,-9.67
2023-02-19T09:46:42.541Z,-9.50
2023-02-19T09:56:47.947Z,-9.36
2023-02-19T10:06:53.042Z,-9.20
2023-02-19T10:16:59.743Z,-9.05
2023-02-19T10:27:10.893Z,-8.98
2023-02-19T10:37:16.832Z,-8.87
2023-02-19T10:47:28.918Z,-8.73
2023-02-19T10:57:34.216Z,-8.56
2023-02-19T11:07:43.460Z,-8.39
2023-02-19T11:17:54.338Z,-8.23
2023-02-19T11:28:10.275Z,-8.08
2023-02-19T11:38:16.189Z,-7.97
2023-02-19T11:48:44.334Z,-7.91
2023-02-19T11:58:57.988Z,-7.83
2023-02-19T12:09:31.292Z,-7.73
2023-02-19T12:20:02.845Z,-7.65
2023-02-19T12:30:35.748Z,-7.57
2023-02-19T12:40:49.519Z,-7.52
2023-02-19T12:50:57.644Z,-7.52
2023-02-19T13:01:04.172Z,-7.55
2023-02-19T13:11:15.630Z,-7.60
2023-02-19T13:21:40.459Z,-7.69
2023-02-19T13:32:06.857Z,-7.77
2023-02-19T13:42:25.638Z,-7.87
2023-02-19T13:52:41.087Z,-8.01
2023-02-19T14:02:43.910Z,-8.11
2023-02-19T14:12:55.498Z,-8.22
2023-02-19T14:23:14.110Z,-8.32
2023-02-19T14:33:26.838Z,-8.43
2023-02-19T14:43:30.867Z,-8.54
2023-02-19T14:53:39.780Z,-8.65
2023-02-19T15:03:44.141Z,-8.76
2023-02-19T15:13:52.542Z,-8.87
2023-02-19T15:23:57.544Z,-8.96
2023-02-19T15:34:01.813Z,-9.05
2023-02-19T15:44:25.784Z,-9.15
2023-02-19T15:54:34.038Z,-9.25
2023-02-19T16:04:36.974Z,-9.35
2023-02-19T16:14:41.160Z,-9.45
2023-02-19T16:24:46.353Z,-9.56
2023-02-19T16:34:51.468Z,-9.70
2023-02-19T16:44:58.995Z,-9.83
2023-02-19T16:55:14.723Z,-9.96
2023-02-19T17:05:21.495Z,-10.09
2023-02-19T17:15:28.707Z,-10.25
2023-02-19T17:25:33.351Z,-10.38
2023-02-19T17:35:38.439Z,-10.50
2023-02-19T17:45:41.681Z,-10.65
2023-02-19T17:55:46.567Z,-10.76
2023-02-19T18:05:49.848Z,-10.89
2023-02-19T18:15:54.506Z,-10.99
2023-02-19T18:25:57.826Z,-11.14
2023-02-19T18:36:03.251Z,-11.24
2023-02-19T18:46:08.181Z,-11.37
2023-02-19T18:56:15.776Z,-11.50
2023-02-19T19:06:18.851Z,-11.60
2023-02-19T19:16:26.724Z,-11.70
2023-02-19T19:26:29.697Z,-11.80
2023-02-19T19:36:34.253Z,-11.92
2023-02-19T19:46:43.904Z,-12.03
2023-02-19T19:56:50.051Z,-12.12
2023-02-19T20:06:53.531Z,-12.20
2023-02-19T20:16:58.063Z,-12.28
2023-02-19T20:27:02.792Z,-12.37
2023-02-19T20:37:07.561Z,-12.45
2023-02-19T20:47:10.392Z,-12.53
2023-02-19T20:57:17.278Z,-12.61
2023-02-19T21:07:20.395Z,-12.68
2023-02-19T21:17:24.853Z,-12.79
2023-02-19T21:27:28.453Z,-12.86
2023-02-19T21:37:32.850Z,-12.94
2023-02-19T21:47:35.860Z,-13.00
2023-02-19T21:57:43.365Z,-13.07
2023-02-19T22:07:47.744Z,-13.17
2023-02-19T22:17:52.103Z,-13.23
2023-02-19T22:27:55.135Z,-13.30
2023-02-19T22:37:59.328Z,-13.37
2023-02-19T22:48:02.195Z,-13.42
2023-02-19T22:58:06.371Z,-13.49
2023-02-19T23:08:09.181Z,-13.55
2023-02-19T23:18:13.428Z,-13.65
2023-02-19T23:28:16.695Z,-13.71
2023-02-19T23:38:21.605Z,-13.78
2023-02-19T23:48:24.453Z,-13.83
2023-02-19T23:58:29.310Z,-13.89
